sensor_id;sensor_type;location;lat;lon;timestamp;P1;durP1;ratioP1;P2;durP2;ratioP2
78877;SDS011;68257;43.514;1.498;2023-09-19T00:00:30;8.07;;;2.17;;
78877;SDS011;68257;43.514;1.498;2023-09-19T00:02:56;6.55;;;1.80;;
78877;SDS011;68257;43.514;1.498;2023-09-19T00:05:22;10.15;;;2.03;;
78877;SDS011;68257;43.514;1.498;2023-09-19T00:07:52;5.30;;;1.73;;
78877;SDS011;68257;43.514;1.498;2023-09-19T00:10:20;8.80;;;2.13;;
78877;SDS011;68257;43.514;1.498;2023-09-19T00:12:55;6.55;;;1.88;;
78877;SDS011;68257;43.514;1.498;2023-09-19T00:15:21;7.00;;;2.20;;
78877;SDS011;68257;43.514;1.498;2023-09-19T00:17:53;8.02;;;1.83;;
78877;SDS011;68257;43.514;1.498;2023-09-19T00:20:19;6.93;;;2.20;;
78877;SDS011;68257;43.514;1.498;2023-09-19T00:22:47;8.27;;;2.03;;
78877;SDS011;68257;43.514;1.498;2023-09-19T00:25:14;6.88;;;1.83;;
78877;SDS011;68257;43.514;1.498;2023-09-19T00:27:40;8.82;;;1.85;;
78877;SDS011;68257;43.514;1.498;2023-09-19T00:30:10;7.97;;;1.60;;
78877;SDS011;68257;43.514;1.498;2023-09-19T00:32:41;7.45;;;1.67;;
78877;SDS011;68257;43.514;1.498;2023-09-19T00:35:07;5.77;;;1.80;;
78877;SDS011;68257;43.514;1.498;2023-09-19T00:37:35;5.38;;;1.65;;
78877;SDS011;68257;43.514;1.498;2023-09-19T00:40:01;7.33;;;2.00;;
78877;SDS011;68257;43.514;1.498;2023-09-19T00:42:28;5.90;;;1.50;;
78877;SDS011;68257;43.514;1.498;2023-09-19T00:44:53;6.17;;;1.83;;
78877;SDS011;68257;43.514;1.498;2023-09-19T00:47:19;6.50;;;1.85;;
78877;SDS011;68257;43.514;1.498;2023-09-19T00:49:45;5.20;;;1.80;;
78877;SDS011;68257;43.514;1.498;2023-09-19T00:52:17;7.55;;;2.22;;
78877;SDS011;68257;43.514;1.498;2023-09-19T00:54:46;7.28;;;2.08;;
78877;SDS011;68257;43.514;1.498;2023-09-19T00:57:12;8.80;;;2.20;;
78877;SDS011;68257;43.514;1.498;2023-09-19T00:59:40;7.57;;;1.92;;
78877;SDS011;68257;43.514;1.498;2023-09-19T01:02:06;8.68;;;2.10;;
78877;SDS011;68257;43.514;1.498;2023-09-19T01:04:31;10.83;;;2.13;;
78877;SDS011;68257;43.514;1.498;2023-09-19T01:06:58;7.13;;;1.90;;
78877;SDS011;68257;43.514;1.498;2023-09-19T01:09:24;5.80;;;1.77;;
78877;SDS011;68257;43.514;1.498;2023-09-19T01:11:50;7.70;;;1.85;;
78877;SDS011;68257;43.514;1.498;2023-09-19T01:16:57;9.02;;;2.30;;
78877;SDS011;68257;43.514;1.498;2023-09-19T01:19:41;8.85;;;2.00;;
78877;SDS011;68257;43.514;1.498;2023-09-19T01:30:31;9.20;;;2.17;;
78877;SDS011;68257;43.514;1.498;2023-09-19T01:32:58;5.20;;;1.80;;
78877;SDS011;68257;43.514;1.498;2023-09-19T01:35:24;7.50;;;1.90;;
78877;SDS011;68257;43.514;1.498;2023-09-19T01:37:49;7.25;;;1.80;;
78877;SDS011;68257;43.514;1.498;2023-09-19T01:40:16;9.57;;;2.37;;
78877;SDS011;68257;43.514;1.498;2023-09-19T01:48:54;7.03;;;1.70;;
78877;SDS011;68257;43.514;1.498;2023-09-19T01:54:09;7.00;;;1.75;;
78877;SDS011;68257;43.514;1.498;2023-09-19T01:56:42;6.43;;;1.70;;
78877;SDS011;68257;43.514;1.498;2023-09-19T01:59:10;7.88;;;2.10;;
78877;SDS011;68257;43.514;1.498;2023-09-19T02:01:38;9.23;;;1.87;;
78877;SDS011;68257;43.514;1.498;2023-09-19T02:04:04;5.68;;;1.63;;
78877;SDS011;68257;43.514;1.498;2023-09-19T02:06:30;7.07;;;1.63;;
78877;SDS011;68257;43.514;1.498;2023-09-19T02:08:55;7.23;;;1.67;;
78877;SDS011;68257;43.514;1.498;2023-09-19T02:11:21;5.33;;;1.60;;
78877;SDS011;68257;43.514;1.498;2023-09-19T02:13:46;5.60;;;1.60;;
78877;SDS011;68257;43.514;1.498;2023-09-19T02:16:12;6.18;;;1.90;;
78877;SDS011;68257;43.514;1.498;2023-09-19T02:18:37;8.10;;;2.00;;
78877;SDS011;68257;43.514;1.498;2023-09-19T02:21:04;6.13;;;1.83;;
78877;SDS011;68257;43.514;1.498;2023-09-19T02:23:32;5.50;;;1.52;;
78877;SDS011;68257;43.514;1.498;2023-09-19T02:25:58;6.00;;;1.67;;
78877;SDS011;68257;43.514;1.498;2023-09-19T02:28:25;6.35;;;2.10;;
78877;SDS011;68257;43.514;1.498;2023-09-19T02:30:55;7.10;;;1.92;;
78877;SDS011;68257;43.514;1.498;2023-09-19T02:33:21;5.88;;;2.03;;
78877;SDS011;68257;43.514;1.498;2023-09-19T02:35:46;10.37;;;1.67;;
78877;SDS011;68257;43.514;1.498;2023-09-19T02:38:12;7.82;;;1.92;;
78877;SDS011;68257;43.514;1.498;2023-09-19T02:40:38;11.27;;;2.20;;
78877;SDS011;68257;43.514;1.498;2023-09-19T02:43:03;7.40;;;1.80;;
78877;SDS011;68257;43.514;1.498;2023-09-19T02:45:30;8.00;;;1.92;;
78877;SDS011;68257;43.514;1.498;2023-09-19T02:47:56;5.28;;;1.80;;
78877;SDS011;68257;43.514;1.498;2023-09-19T02:50:22;6.20;;;1.70;;
78877;SDS011;68257;43.514;1.498;2023-09-19T02:52:47;6.47;;;1.90;;
78877;SDS011;68257;43.514;1.498;2023-09-19T02:55:17;6.57;;;1.70;;
78877;SDS011;68257;43.514;1.498;2023-09-19T02:57:53;6.78;;;1.80;;
78877;SDS011;68257;43.514;1.498;2023-09-19T03:00:22;6.03;;;1.70;;
78877;SDS011;68257;43.514;1.498;2023-09-19T03:02:49;7.25;;;2.13;;
78877;SDS011;68257;43.514;1.498;2023-09-19T03:05:14;5.22;;;1.70;;
78877;SDS011;68257;43.514;1.498;2023-09-19T03:07:40;7.67;;;2.03;;
78877;SDS011;68257;43.514;1.498;2023-09-19T03:10:08;8.38;;;1.65;;
78877;SDS011;68257;43.514;1.498;2023-09-19T03:12:34;8.90;;;2.00;;
78877;SDS011;68257;43.514;1.498;2023-09-19T03:15:00;6.73;;;1.93;;
78877;SDS011;68257;43.514;1.498;2023-09-19T03:17:25;7.00;;;1.88;;
78877;SDS011;68257;43.514;1.498;2023-09-19T03:19:51;6.30;;;1.67;;
78877;SDS011;68257;43.514;1.498;2023-09-19T03:22:16;8.17;;;1.53;;
78877;SDS011;68257;43.514;1.498;2023-09-19T03:24:42;10.45;;;1.80;;
78877;SDS011;68257;43.514;1.498;2023-09-19T03:27:11;10.55;;;1.80;;
78877;SDS011;68257;43.514;1.498;2023-09-19T03:29:41;6.57;;;1.50;;
78877;SDS011;68257;43.514;1.498;2023-09-19T03:32:07;8.75;;;1.77;;
78877;SDS011;68257;43.514;1.498;2023-09-19T03:34:38;7.65;;;1.85;;
78877;SDS011;68257;43.514;1.498;2023-09-19T03:37:11;6.15;;;1.80;;
78877;SDS011;68257;43.514;1.498;2023-09-19T03:39:36;9.30;;;2.25;;
78877;SDS011;68257;43.514;1.498;2023-09-19T03:42:02;5.97;;;1.60;;
78877;SDS011;68257;43.514;1.498;2023-09-19T03:44:29;5.25;;;1.50;;
78877;SDS011;68257;43.514;1.498;2023-09-19T03:46:55;7.93;;;2.20;;
78877;SDS011;68257;43.514;1.498;2023-09-19T03:49:21;8.47;;;1.70;;
78877;SDS011;68257;43.514;1.498;2023-09-19T03:51:46;7.53;;;1.70;;
78877;SDS011;68257;43.514;1.498;2023-09-19T03:54:12;6.87;;;2.03;;
78877;SDS011;68257;43.514;1.498;2023-09-19T03:56:37;8.00;;;2.10;;
78877;SDS011;68257;43.514;1.498;2023-09-19T03:59:03;12.00;;;2.00;;
78877;SDS011;68257;43.514;1.498;2023-09-19T04:01:28;7.03;;;1.83;;
78877;SDS011;68257;43.514;1.498;2023-09-19T04:03:56;7.57;;;1.85;;
78877;SDS011;68257;43.514;1.498;2023-09-19T04:06:22;6.97;;;1.80;;
78877;SDS011;68257;43.514;1.498;2023-09-19T04:08:48;5.10;;;1.70;;
78877;SDS011;68257;43.514;1.498;2023-09-19T04:11:13;6.22;;;1.90;;
78877;SDS011;68257;43.514;1.498;2023-09-19T04:13:39;6.03;;;2.20;;
78877;SDS011;68257;43.514;1.498;2023-09-19T04:16:04;5.63;;;1.77;;
78877;SDS011;68257;43.514;1.498;2023-09-19T04:18:31;5.45;;;1.60;;
78877;SDS011;68257;43.514;1.498;2023-09-19T04:20:58;7.68;;;2.00;;
78877;SDS011;68257;43.514;1.498;2023-09-19T04:23:23;6.80;;;1.90;;
78877;SDS011;68257;43.514;1.498;2023-09-19T04:25:49;7.63;;;1.83;;
78877;SDS011;68257;43.514;1.498;2023-09-19T04:28:15;4.82;;;1.83;;
78877;SDS011;68257;43.514;1.498;2023-09-19T04:30:40;8.20;;;2.03;;
78877;SDS011;68257;43.514;1.498;2023-09-19T04:33:06;6.07;;;1.80;;
78877;SDS011;68257;43.514;1.498;2023-09-19T04:35:32;7.07;;;1.70;;
78877;SDS011;68257;43.514;1.498;2023-09-19T04:37:57;6.27;;;1.70;;
78877;SDS011;68257;43.514;1.498;2023-09-19T04:40:23;7.00;;;2.20;;
78877;SDS011;68257;43.514;1.498;2023-09-19T04:42:58;5.60;;;1.90;;
78877;SDS011;68257;43.514;1.498;2023-09-19T04:45:25;6.22;;;1.90;;
78877;SDS011;68257;43.514;1.498;2023-09-19T04:47:51;6.57;;;1.67;;
78877;SDS011;68257;43.514;1.498;2023-09-19T04:50:17;6.40;;;1.90;;
78877;SDS011;68257;43.514;1.498;2023-09-19T04:52:43;5.68;;;2.00;;
78877;SDS011;68257;43.514;1.498;2023-09-19T04:55:15;7.60;;;1.83;;
78877;SDS011;68257;43.514;1.498;2023-09-19T04:57:45;7.68;;;2.03;;
78877;SDS011;68257;43.514;1.498;2023-09-19T05:00:15;6.13;;;1.88;;
78877;SDS011;68257;43.514;1.498;2023-09-19T05:02:44;6.53;;;1.80;;
78877;SDS011;68257;43.514;1.498;2023-09-19T05:05:11;8.80;;;1.85;;
78877;SDS011;68257;43.514;1.498;2023-09-19T05:07:37;8.70;;;1.80;;
78877;SDS011;68257;43.514;1.498;2023-09-19T05:10:04;6.43;;;1.52;;
78877;SDS011;68257;43.514;1.498;2023-09-19T05:12:32;6.40;;;1.95;;
78877;SDS011;68257;43.514;1.498;2023-09-19T05:15:03;6.97;;;1.73;;
78877;SDS011;68257;43.514;1.498;2023-09-19T05:17:29;7.45;;;2.00;;
78877;SDS011;68257;43.514;1.498;2023-09-19T05:19:56;6.83;;;2.00;;
78877;SDS011;68257;43.514;1.498;2023-09-19T05:22:22;6.60;;;2.30;;
78877;SDS011;68257;43.514;1.498;2023-09-19T05:24:49;6.13;;;1.90;;
78877;SDS011;68257;43.514;1.498;2023-09-19T05:27:16;6.78;;;2.00;;
78877;SDS011;68257;43.514;1.498;2023-09-19T05:29:44;6.90;;;2.07;;
78877;SDS011;68257;43.514;1.498;2023-09-19T05:32:10;8.32;;;2.17;;
78877;SDS011;68257;43.514;1.498;2023-09-19T05:34:36;8.73;;;2.33;;
78877;SDS011;68257;43.514;1.498;2023-09-19T05:37:02;7.15;;;2.10;;
78877;SDS011;68257;43.514;1.498;2023-09-19T05:39:28;6.43;;;2.50;;
78877;SDS011;68257;43.514;1.498;2023-09-19T05:41:53;5.77;;;2.17;;
78877;SDS011;68257;43.514;1.498;2023-09-19T05:44:18;6.70;;;2.30;;
78877;SDS011;68257;43.514;1.498;2023-09-19T05:46:44;10.10;;;2.75;;
78877;SDS011;68257;43.514;1.498;2023-09-19T05:49:11;10.27;;;3.05;;
78877;SDS011;68257;43.514;1.498;2023-09-19T05:51:36;7.53;;;2.43;;
78877;SDS011;68257;43.514;1.498;2023-09-19T05:54:01;7.60;;;2.30;;
78877;SDS011;68257;43.514;1.498;2023-09-19T05:56:27;7.83;;;2.63;;
78877;SDS011;68257;43.514;1.498;2023-09-19T05:58:52;6.40;;;2.10;;
78877;SDS011;68257;43.514;1.498;2023-09-19T06:01:18;7.45;;;2.15;;
78877;SDS011;68257;43.514;1.498;2023-09-19T06:03:44;8.17;;;2.30;;
78877;SDS011;68257;43.514;1.498;2023-09-19T06:06:09;8.85;;;2.50;;
78877;SDS011;68257;43.514;1.498;2023-09-19T06:08:35;5.35;;;2.50;;
78877;SDS011;68257;43.514;1.498;2023-09-19T06:11:00;7.47;;;3.50;;
78877;SDS011;68257;43.514;1.498;2023-09-19T06:13:28;8.60;;;2.20;;
78877;SDS011;68257;43.514;1.498;2023-09-19T06:15:54;8.05;;;2.17;;
78877;SDS011;68257;43.514;1.498;2023-09-19T06:18:23;7.82;;;2.03;;
78877;SDS011;68257;43.514;1.498;2023-09-19T06:20:51;7.95;;;2.22;;
78877;SDS011;68257;43.514;1.498;2023-09-19T06:23:16;9.70;;;1.80;;
78877;SDS011;68257;43.514;1.498;2023-09-19T06:25:42;8.43;;;2.40;;
78877;SDS011;68257;43.514;1.498;2023-09-19T06:28:11;9.55;;;2.40;;
78877;SDS011;68257;43.514;1.498;2023-09-19T06:30:42;10.70;;;3.10;;
78877;SDS011;68257;43.514;1.498;2023-09-19T06:33:07;7.33;;;2.27;;
78877;SDS011;68257;43.514;1.498;2023-09-19T06:35:33;9.77;;;4.20;;
78877;SDS011;68257;43.514;1.498;2023-09-19T06:38:01;9.40;;;2.67;;
78877;SDS011;68257;43.514;1.498;2023-09-19T06:40:28;7.18;;;2.53;;
78877;SDS011;68257;43.514;1.498;2023-09-19T06:42:53;7.10;;;2.30;;
78877;SDS011;68257;43.514;1.498;2023-09-19T06:45:19;8.07;;;2.25;;
78877;SDS011;68257;43.514;1.498;2023-09-19T06:47:51;7.60;;;2.37;;
78877;SDS011;68257;43.514;1.498;2023-09-19T06:50:21;7.22;;;2.30;;
78877;SDS011;68257;43.514;1.498;2023-09-19T06:52:50;7.82;;;2.00;;
78877;SDS011;68257;43.514;1.498;2023-09-19T06:55:17;6.45;;;1.80;;
78877;SDS011;68257;43.514;1.498;2023-09-19T06:57:45;8.02;;;2.03;;
78877;SDS011;68257;43.514;1.498;2023-09-19T07:00:13;8.02;;;2.13;;
78877;SDS011;68257;43.514;1.498;2023-09-19T07:02:58;8.40;;;1.88;;
78877;SDS011;68257;43.514;1.498;2023-09-19T07:05:26;6.60;;;1.98;;
78877;SDS011;68257;43.514;1.498;2023-09-19T07:07:52;6.82;;;2.10;;
78877;SDS011;68257;43.514;1.498;2023-09-19T07:10:19;6.00;;;2.33;;
78877;SDS011;68257;43.514;1.498;2023-09-19T07:12:45;7.68;;;1.92;;
78877;SDS011;68257;43.514;1.498;2023-09-19T07:15:10;6.13;;;2.27;;
78877;SDS011;68257;43.514;1.498;2023-09-19T07:17:36;8.30;;;2.30;;
78877;SDS011;68257;43.514;1.498;2023-09-19T07:20:02;6.30;;;1.80;;
78877;SDS011;68257;43.514;1.498;2023-09-19T07:22:32;8.32;;;2.00;;
78877;SDS011;68257;43.514;1.498;2023-09-19T07:24:58;6.60;;;2.20;;
78877;SDS011;68257;43.514;1.498;2023-09-19T07:27:23;10.45;;;1.90;;
78877;SDS011;68257;43.514;1.498;2023-09-19T07:29:48;7.80;;;1.80;;
78877;SDS011;68257;43.514;1.498;2023-09-19T07:32:14;7.40;;;2.10;;
78877;SDS011;68257;43.514;1.498;2023-09-19T07:34:42;10.07;;;2.30;;
78877;SDS011;68257;43.514;1.498;2023-09-19T07:37:09;7.22;;;2.00;;
78877;SDS011;68257;43.514;1.498;2023-09-19T07:39:35;6.97;;;2.05;;
78877;SDS011;68257;43.514;1.498;2023-09-19T07:42:00;9.03;;;2.37;;
78877;SDS011;68257;43.514;1.498;2023-09-19T07:44:26;6.15;;;2.13;;
78877;SDS011;68257;43.514;1.498;2023-09-19T07:46:51;7.63;;;2.10;;
78877;SDS011;68257;43.514;1.498;2023-09-19T07:49:18;6.63;;;1.92;;
78877;SDS011;68257;43.514;1.498;2023-09-19T07:51:44;11.10;;;2.00;;
78877;SDS011;68257;43.514;1.498;2023-09-19T07:54:11;8.00;;;2.10;;
78877;SDS011;68257;43.514;1.498;2023-09-19T07:56:38;7.57;;;2.00;;
78877;SDS011;68257;43.514;1.498;2023-09-19T07:59:03;6.30;;;1.70;;
78877;SDS011;68257;43.514;1.498;2023-09-19T08:01:28;7.93;;;2.17;;
78877;SDS011;68257;43.514;1.498;2023-09-19T08:03:54;7.87;;;2.03;;
78877;SDS011;68257;43.514;1.498;2023-09-19T08:06:19;7.07;;;2.03;;
78877;SDS011;68257;43.514;1.498;2023-09-19T08:08:45;5.57;;;2.53;;
78877;SDS011;68257;43.514;1.498;2023-09-19T08:11:11;7.70;;;1.83;;
78877;SDS011;68257;43.514;1.498;2023-09-19T08:13:37;8.10;;;2.10;;
78877;SDS011;68257;43.514;1.498;2023-09-19T08:16:08;7.25;;;2.03;;
78877;SDS011;68257;43.514;1.498;2023-09-19T08:18:34;7.70;;;2.03;;
78877;SDS011;68257;43.514;1.498;2023-09-19T08:21:00;7.10;;;2.17;;
78877;SDS011;68257;43.514;1.498;2023-09-19T08:23:26;9.18;;;2.25;;
78877;SDS011;68257;43.514;1.498;2023-09-19T08:25:55;6.87;;;2.00;;
78877;SDS011;68257;43.514;1.498;2023-09-19T08:28:21;6.05;;;2.00;;
78877;SDS011;68257;43.514;1.498;2023-09-19T08:30:49;7.10;;;2.67;;
78877;SDS011;68257;43.514;1.498;2023-09-19T08:33:15;9.38;;;2.63;;
78877;SDS011;68257;43.514;1.498;2023-09-19T08:35:41;6.90;;;2.25;;
78877;SDS011;68257;43.514;1.498;2023-09-19T08:38:08;9.95;;;2.40;;
78877;SDS011;68257;43.514;1.498;2023-09-19T08:40:38;7.07;;;1.90;;
78877;SDS011;68257;43.514;1.498;2023-09-19T08:43:08;8.63;;;1.98;;
78877;SDS011;68257;43.514;1.498;2023-09-19T08:45:34;7.80;;;2.40;;
78877;SDS011;68257;43.514;1.498;2023-09-19T08:50:41;7.20;;;1.67;;
78877;SDS011;68257;43.514;1.498;2023-09-19T08:53:14;7.90;;;2.72;;
78877;SDS011;68257;43.514;1.498;2023-09-19T08:55:45;6.73;;;2.20;;
78877;SDS011;68257;43.514;1.498;2023-09-19T08:58:13;6.82;;;2.20;;
78877;SDS011;68257;43.514;1.498;2023-09-19T09:00:41;7.93;;;1.90;;
78877;SDS011;68257;43.514;1.498;2023-09-19T09:03:11;5.65;;;2.10;;
78877;SDS011;68257;43.514;1.498;2023-09-19T09:05:37;7.30;;;2.38;;
78877;SDS011;68257;43.514;1.498;2023-09-19T09:08:05;7.37;;;2.43;;
78877;SDS011;68257;43.514;1.498;2023-09-19T09:10:31;9.35;;;2.30;;
78877;SDS011;68257;43.514;1.498;2023-09-19T09:12:57;7.53;;;2.00;;
78877;SDS011;68257;43.514;1.498;2023-09-19T09:15:26;6.63;;;1.70;;
78877;SDS011;68257;43.514;1.498;2023-09-19T09:17:52;8.48;;;2.28;;
78877;SDS011;68257;43.514;1.498;2023-09-19T09:20:20;5.13;;;2.40;;
78877;SDS011;68257;43.514;1.498;2023-09-19T09:22:56;8.73;;;2.75;;
78877;SDS011;68257;43.514;1.498;2023-09-19T09:25:46;5.95;;;2.47;;
78877;SDS011;68257;43.514;1.498;2023-09-19T09:28:22;5.78;;;2.33;;
78877;SDS011;68257;43.514;1.498;2023-09-19T09:30:48;7.40;;;2.50;;
78877;SDS011;68257;43.514;1.498;2023-09-19T09:33:14;6.80;;;2.72;;
78877;SDS011;68257;43.514;1.498;2023-09-19T09:35:47;8.18;;;2.40;;
78877;SDS011;68257;43.514;1.498;2023-09-19T09:38:17;5.88;;;2.95;;
78877;SDS011;68257;43.514;1.498;2023-09-19T09:40:47;5.53;;;2.77;;
78877;SDS011;68257;43.514;1.498;2023-09-19T09:43:38;6.88;;;2.53;;
78877;SDS011;68257;43.514;1.498;2023-09-19T09:51:43;5.05;;;2.00;;
78877;SDS011;68257;43.514;1.498;2023-09-19T09:54:25;6.57;;;2.07;;
78877;SDS011;68257;43.514;1.498;2023-09-19T09:56:57;6.53;;;1.90;;
78877;SDS011;68257;43.514;1.498;2023-09-19T10:02:18;5.38;;;2.08;;
78877;SDS011;68257;43.514;1.498;2023-09-19T10:04:57;8.15;;;2.28;;
78877;SDS011;68257;43.514;1.498;2023-09-19T10:07:39;7.93;;;2.83;;
78877;SDS011;68257;43.514;1.498;2023-09-19T10:10:14;4.82;;;1.70;;
78877;SDS011;68257;43.514;1.498;2023-09-19T10:12:42;8.00;;;1.83;;
78877;SDS011;68257;43.514;1.498;2023-09-19T10:15:10;6.18;;;2.50;;
78877;SDS011;68257;43.514;1.498;2023-09-19T10:17:36;5.30;;;2.00;;
78877;SDS011;68257;43.514;1.498;2023-09-19T10:20:02;6.68;;;2.80;;
78877;SDS011;68257;43.514;1.498;2023-09-19T10:22:42;5.97;;;2.35;;
78877;SDS011;68257;43.514;1.498;2023-09-19T10:25:08;6.07;;;2.83;;
78877;SDS011;68257;43.514;1.498;2023-09-19T10:27:34;6.03;;;2.97;;
78877;SDS011;68257;43.514;1.498;2023-09-19T10:30:03;5.18;;;2.78;;
78877;SDS011;68257;43.514;1.498;2023-09-19T10:32:32;5.78;;;3.03;;
78877;SDS011;68257;43.514;1.498;2023-09-19T10:34:58;5.70;;;3.00;;
78877;SDS011;68257;43.514;1.498;2023-09-19T10:37:25;5.73;;;2.97;;
78877;SDS011;68257;43.514;1.498;2023-09-19T10:39:52;5.43;;;2.95;;
78877;SDS011;68257;43.514;1.498;2023-09-19T10:42:20;5.80;;;3.35;;
78877;SDS011;68257;43.514;1.498;2023-09-19T10:44:48;7.13;;;3.33;;
78877;SDS011;68257;43.514;1.498;2023-09-19T10:47:18;5.22;;;3.60;;
78877;SDS011;68257;43.514;1.498;2023-09-19T10:49:45;3.93;;;2.20;;
78877;SDS011;68257;43.514;1.498;2023-09-19T10:52:15;5.30;;;2.30;;
78877;SDS011;68257;43.514;1.498;2023-09-19T10:54:48;5.53;;;3.50;;
78877;SDS011;68257;43.514;1.498;2023-09-19T10:57:20;4.47;;;2.50;;
78877;SDS011;68257;43.514;1.498;2023-09-19T11:00:05;3.97;;;1.80;;
78877;SDS011;68257;43.514;1.498;2023-09-19T11:05:37;5.38;;;3.92;;
78877;SDS011;68257;43.514;1.498;2023-09-19T11:08:06;7.03;;;3.60;;
78877;SDS011;68257;43.514;1.498;2023-09-19T11:10:48;5.70;;;3.80;;
78877;SDS011;68257;43.514;1.498;2023-09-19T11:13:27;5.28;;;3.53;;
78877;SDS011;68257;43.514;1.498;2023-09-19T11:19:09;4.60;;;3.60;;
78877;SDS011;68257;43.514;1.498;2023-09-19T11:26:50;8.07;;;4.10;;
78877;SDS011;68257;43.514;1.498;2023-09-19T11:29:29;5.87;;;3.57;;
78877;SDS011;68257;43.514;1.498;2023-09-19T11:31:56;5.60;;;2.75;;
78877;SDS011;68257;43.514;1.498;2023-09-19T11:39:39;6.55;;;2.42;;
78877;SDS011;68257;43.514;1.498;2023-09-19T11:48:11;4.70;;;3.75;;
78877;SDS011;68257;43.514;1.498;2023-09-19T11:50:41;5.53;;;4.40;;
78877;SDS011;68257;43.514;1.498;2023-09-19T11:53:10;5.05;;;4.20;;
78877;SDS011;68257;43.514;1.498;2023-09-19T11:55:37;4.90;;;4.30;;
78877;SDS011;68257;43.514;1.498;2023-09-19T11:58:04;4.43;;;3.85;;
78877;SDS011;68257;43.514;1.498;2023-09-19T12:00:31;4.75;;;3.50;;
78877;SDS011;68257;43.514;1.498;2023-09-19T12:02:58;5.07;;;4.07;;
78877;SDS011;68257;43.514;1.498;2023-09-19T12:05:31;4.35;;;2.60;;
78877;SDS011;68257;43.514;1.498;2023-09-19T12:07:58;6.10;;;3.20;;
78877;SDS011;68257;43.514;1.498;2023-09-19T12:10:24;4.60;;;2.80;;
78877;SDS011;68257;43.514;1.498;2023-09-19T12:12:49;4.73;;;4.23;;
78877;SDS011;68257;43.514;1.498;2023-09-19T12:15:22;5.07;;;4.57;;
78877;SDS011;68257;43.514;1.498;2023-09-19T12:17:53;5.30;;;4.80;;
78877;SDS011;68257;43.514;1.498;2023-09-19T12:20:19;7.37;;;4.60;;
78877;SDS011;68257;43.514;1.498;2023-09-19T12:22:46;6.03;;;4.72;;
78877;SDS011;68257;43.514;1.498;2023-09-19T12:25:12;5.20;;;4.25;;
78877;SDS011;68257;43.514;1.498;2023-09-19T12:27:41;4.85;;;4.40;;
78877;SDS011;68257;43.514;1.498;2023-09-19T12:30:12;6.22;;;5.18;;
78877;SDS011;68257;43.514;1.498;2023-09-19T12:32:39;5.50;;;5.00;;
78877;SDS011;68257;43.514;1.498;2023-09-19T12:35:08;5.28;;;4.78;;
78877;SDS011;68257;43.514;1.498;2023-09-19T12:37:36;5.60;;;4.82;;
78877;SDS011;68257;43.514;1.498;2023-09-19T12:40:18;5.90;;;5.28;;
78877;SDS011;68257;43.514;1.498;2023-09-19T12:42:52;7.18;;;5.65;;
78877;SDS011;68257;43.514;1.498;2023-09-19T12:45:20;5.30;;;4.80;;
78877;SDS011;68257;43.514;1.498;2023-09-19T12:53:33;5.68;;;5.18;;
78877;SDS011;68257;43.514;1.498;2023-09-19T12:56:02;5.97;;;5.47;;
78877;SDS011;68257;43.514;1.498;2023-09-19T12:58:33;5.60;;;5.10;;
78877;SDS011;68257;43.514;1.498;2023-09-19T13:00:59;5.63;;;5.13;;
78877;SDS011;68257;43.514;1.498;2023-09-19T13:03:26;6.43;;;5.82;;
78877;SDS011;68257;43.514;1.498;2023-09-19T13:06:01;5.75;;;5.25;;
78877;SDS011;68257;43.514;1.498;2023-09-19T13:11:17;6.20;;;5.60;;
78877;SDS011;68257;43.514;1.498;2023-09-19T13:16:19;6.13;;;5.63;;
78877;SDS011;68257;43.514;1.498;2023-09-19T13:18:49;6.03;;;5.43;;
78877;SDS011;68257;43.514;1.498;2023-09-19T13:21:34;6.10;;;5.50;;
78877;SDS011;68257;43.514;1.498;2023-09-19T13:24:23;6.33;;;5.80;;
78877;SDS011;68257;43.514;1.498;2023-09-19T13:26:53;6.35;;;5.75;;
78877;SDS011;68257;43.514;1.498;2023-09-19T13:29:19;7.20;;;6.18;;
78877;SDS011;68257;43.514;1.498;2023-09-19T13:31:51;6.77;;;6.17;;
78877;SDS011;68257;43.514;1.498;2023-09-19T13:34:20;7.18;;;6.68;;
78877;SDS011;68257;43.514;1.498;2023-09-19T13:36:46;7.37;;;6.77;;
78877;SDS011;68257;43.514;1.498;2023-09-19T13:39:17;7.20;;;4.60;;
78877;SDS011;68257;43.514;1.498;2023-09-19T13:41:46;6.45;;;5.95;;
78877;SDS011;68257;43.514;1.498;2023-09-19T13:44:12;6.40;;;5.90;;
78877;SDS011;68257;43.514;1.498;2023-09-19T13:46:38;7.50;;;6.90;;
78877;SDS011;68257;43.514;1.498;2023-09-19T13:49:05;7.17;;;6.67;;
78877;SDS011;68257;43.514;1.498;2023-09-19T13:51:31;7.40;;;6.80;;
78877;SDS011;68257;43.514;1.498;2023-09-19T13:53:56;7.37;;;6.67;;
78877;SDS011;68257;43.514;1.498;2023-09-19T13:56:22;6.83;;;6.33;;
78877;SDS011;68257;43.514;1.498;2023-09-19T13:58:47;6.67;;;6.03;;
78877;SDS011;68257;43.514;1.498;2023-09-19T14:01:13;7.30;;;6.70;;
78877;SDS011;68257;43.514;1.498;2023-09-19T14:03:39;7.18;;;6.57;;
78877;SDS011;68257;43.514;1.498;2023-09-19T14:06:05;7.20;;;6.60;;
78877;SDS011;68257;43.514;1.498;2023-09-19T14:08:30;6.65;;;6.03;;
78877;SDS011;68257;43.514;1.498;2023-09-19T14:10:56;7.60;;;7.00;;
78877;SDS011;68257;43.514;1.498;2023-09-19T14:13:21;7.60;;;7.00;;
78877;SDS011;68257;43.514;1.498;2023-09-19T14:15:46;7.33;;;6.73;;
78877;SDS011;68257;43.514;1.498;2023-09-19T14:18:12;7.60;;;6.90;;
78877;SDS011;68257;43.514;1.498;2023-09-19T14:20:38;6.80;;;6.27;;
78877;SDS011;68257;43.514;1.498;2023-09-19T14:23:06;7.43;;;6.82;;
78877;SDS011;68257;43.514;1.498;2023-09-19T14:25:33;7.37;;;6.77;;
78877;SDS011;68257;43.514;1.498;2023-09-19T14:27:59;7.65;;;6.88;;
78877;SDS011;68257;43.514;1.498;2023-09-19T14:30:25;7.80;;;7.07;;
78877;SDS011;68257;43.514;1.498;2023-09-19T14:32:51;7.43;;;6.82;;
78877;SDS011;68257;43.514;1.498;2023-09-19T14:35:16;7.47;;;6.87;;
78877;SDS011;68257;43.514;1.498;2023-09-19T14:37:42;7.18;;;6.57;;
78877;SDS011;68257;43.514;1.498;2023-09-19T14:40:08;7.63;;;7.03;;
78877;SDS011;68257;43.514;1.498;2023-09-19T14:42:35;7.40;;;6.70;;
78877;SDS011;68257;43.514;1.498;2023-09-19T14:45:03;7.88;;;7.18;;
78877;SDS011;68257;43.514;1.498;2023-09-19T14:47:30;9.10;;;8.50;;
78877;SDS011;68257;43.514;1.498;2023-09-19T14:49:57;7.40;;;6.80;;
78877;SDS011;68257;43.514;1.498;2023-09-19T14:52:23;7.43;;;6.72;;
78877;SDS011;68257;43.514;1.498;2023-09-19T14:54:51;8.50;;;7.70;;
78877;SDS011;68257;43.514;1.498;2023-09-19T14:57:16;7.80;;;7.20;;
78877;SDS011;68257;43.514;1.498;2023-09-19T14:59:41;7.67;;;7.07;;
78877;SDS011;68257;43.514;1.498;2023-09-19T15:02:07;7.47;;;6.88;;
78877;SDS011;68257;43.514;1.498;2023-09-19T15:04:32;8.17;;;7.50;;
78877;SDS011;68257;43.514;1.498;2023-09-19T15:06:58;8.25;;;7.47;;
78877;SDS011;68257;43.514;1.498;2023-09-19T15:09:25;7.57;;;7.07;;
78877;SDS011;68257;43.514;1.498;2023-09-19T15:11:51;7.93;;;7.18;;
78877;SDS011;68257;43.514;1.498;2023-09-19T15:14:20;8.02;;;7.32;;
78877;SDS011;68257;43.514;1.498;2023-09-19T15:16:46;7.38;;;6.78;;
78877;SDS011;68257;43.514;1.498;2023-09-19T15:19:12;8.45;;;7.68;;
78877;SDS011;68257;43.514;1.498;2023-09-19T15:21:38;8.03;;;7.33;;
78877;SDS011;68257;43.514;1.498;2023-09-19T15:24:04;8.17;;;7.37;;
78877;SDS011;68257;43.514;1.498;2023-09-19T15:26:30;6.85;;;6.30;;
78877;SDS011;68257;43.514;1.498;2023-09-19T15:28:55;7.47;;;6.87;;
78877;SDS011;68257;43.514;1.498;2023-09-19T15:31:21;7.63;;;7.13;;
78877;SDS011;68257;43.514;1.498;2023-09-19T15:33:47;8.03;;;7.40;;
78877;SDS011;68257;43.514;1.498;2023-09-19T15:36:13;7.85;;;7.15;;
78877;SDS011;68257;43.514;1.498;2023-09-19T15:44:00;7.30;;;6.60;;
78877;SDS011;68257;43.514;1.498;2023-09-19T15:46:26;7.82;;;7.13;;
78877;SDS011;68257;43.514;1.498;2023-09-19T15:48:53;7.70;;;7.10;;
78877;SDS011;68257;43.514;1.498;2023-09-19T15:51:18;8.07;;;7.38;;
78877;SDS011;68257;43.514;1.498;2023-09-19T15:56:10;7.55;;;6.93;;
78877;SDS011;68257;43.514;1.498;2023-09-19T15:58:37;8.37;;;7.47;;
78877;SDS011;68257;43.514;1.498;2023-09-19T16:01:07;7.40;;;6.72;;
78877;SDS011;68257;43.514;1.498;2023-09-19T16:03:34;7.80;;;7.20;;